createdAt,value
2022-12-18T00:00:06.298Z,50.30
2022-12-18T00:02:34.476Z,61.80
2022-12-18T00:05:02.402Z,58.40
2022-12-18T00:07:30.331Z,52.30
2022-12-18T00:09:58.173Z,52.30
2022-12-18T00:12:26.133Z,57.40
2022-12-18T00:14:54.006Z,55.60
2022-12-18T00:17:22.013Z,57.00
2022-12-18T00:19:49.974Z,54.60
2022-12-18T00:22:19.634Z,55.70
2022-12-18T00:24:47.580Z,51.90
2022-12-18T00:27:15.530Z,53.30
2022-12-18T00:29:43.517Z,51.50
2022-12-18T00:32:11.414Z,51.40
2022-12-18T00:34:39.244Z,56.50
2022-12-18T00:37:07.084Z,53.00
2022-12-18T00:39:34.929Z,55.20
2022-12-18T00:42:21.559Z,53.70
2022-12-18T00:44:49.554Z,51.80
2022-12-18T00:47:17.594Z,57.70
2022-12-18T00:49:45.484Z,56.80
2022-12-18T00:52:13.500Z,54.20
2022-12-18T00:54:41.330Z,53.70
2022-12-18T00:57:09.237Z,59.50
2022-12-18T00:59:37.073Z,58.10
2022-12-18T01:02:04.994Z,55.00
2022-12-18T01:04:34.241Z,57.90
2022-12-18T01:07:02.238Z,54.70
2022-12-18T01:09:30.123Z,56.80
2022-12-18T01:11:58.051Z,63.00
2022-12-18T01:14:26.456Z,60.10
2022-12-18T01:16:54.375Z,58.30
2022-12-18T01:19:22.369Z,56.90
2022-12-18T01:21:50.591Z,58.80
2022-12-18T01:24:18.451Z,58.10
2022-12-18T01:26:46.659Z,61.20
2022-12-18T01:29:14.665Z,57.60
2022-12-18T01:31:42.621Z,53.90
2022-12-18T01:34:11.300Z,55.10
2022-12-18T01:36:42.510Z,52.00
2022-12-18T01:39:15.863Z,57.30
2022-12-18T01:42:04.189Z,54.40
2022-12-18T01:45:06.701Z,53.00
2022-12-18T01:48:06.469Z,56.50
2022-12-18T01:50:40.434Z,50.80
2022-12-18T01:55:48.027Z,57.50
2022-12-18T01:58:17.155Z,60.90
2022-12-18T02:00:45.970Z,55.20
2022-12-18T02:03:14.234Z,58.40
2022-12-18T02:06:05.409Z,58.00
2022-12-18T02:08:59.119Z,54.10
2022-12-18T02:11:36.721Z,57.00
2022-12-18T02:14:37.272Z,58.50
2022-12-18T02:17:12.788Z,58.20
2022-12-18T02:20:01.306Z,54.30
2022-12-18T02:22:36.075Z,56.30
2022-12-18T02:25:07.667Z,57.30
2022-12-18T02:27:38.321Z,56.00
2022-12-18T02:30:08.588Z,55.70
2022-12-18T02:32:42.702Z,57.10
2022-12-18T02:35:17.806Z,61.70
2022-12-18T02:37:48.056Z,60.90
2022-12-18T02:40:18.344Z,57.00
2022-12-18T02:42:46.221Z,55.80
2022-12-18T02:45:14.858Z,58.70
2022-12-18T02:47:46.964Z,59.50
2022-12-18T02:50:25.632Z,69.00
2022-12-18T02:52:56.540Z,63.40
2022-12-18T02:55:48.430Z,64.70
2022-12-18T02:58:42.731Z,55.20
2022-12-18T03:01:29.475Z,55.20
2022-12-18T03:04:25.268Z,59.70
2022-12-18T03:06:57.453Z,55.40
2022-12-18T03:09:39.720Z,56.40
2022-12-18T03:12:25.189Z,52.70
2022-12-18T03:15:02.639Z,47.90
2022-12-18T03:17:33.423Z,50.90
2022-12-18T03:20:11.164Z,52.20
2022-12-18T03:22:40.169Z,47.70
2022-12-18T03:25:14.285Z,53.50
2022-12-18T03:27:49.122Z,49.80
2022-12-18T03:30:18.696Z,49.90
2022-12-18T03:33:07.001Z,50.70
2022-12-18T03:35:40.816Z,55.50
2022-12-18T03:40:49.897Z,57.20
2022-12-18T03:43:52.044Z,52.70
2022-12-18T03:46:49.672Z,57.80
2022-12-18T03:49:29.993Z,62.20
2022-12-18T03:52:10.062Z,64.50
2022-12-18T03:54:41.928Z,65.00
2022-12-18T03:57:16.045Z,66.80
2022-12-18T03:59:46.777Z,61.60
2022-12-18T04:02:18.075Z,63.30
2022-12-18T04:04:47.892Z,63.60
2022-12-18T04:07:17.282Z,64.50
2022-12-18T04:09:46.830Z,60.90
2022-12-18T04:12:14.722Z,57.90
2022-12-18T04:14:42.526Z,55.20
2022-12-18T04:17:10.373Z,64.50
2022-12-18T04:19:38.306Z,62.60
2022-12-18T04:22:06.154Z,69.80
2022-12-18T04:24:33.987Z,67.10
2022-12-18T04:27:01.804Z,67.50
2022-12-18T04:29:29.760Z,68.00
2022-12-18T04:31:58.302Z,66.10
2022-12-18T04:34:26.206Z,66.90
2022-12-18T04:36:54.096Z,70.90
2022-12-18T04:39:21.912Z,75.80
2022-12-18T04:41:49.836Z,75.90
2022-12-18T04:44:17.645Z,69.80
2022-12-18T04:46:45.651Z,71.20
2022-12-18T04:49:13.654Z,75.60
2022-12-18T04:51:41.504Z,84.30
2022-12-18T04:54:09.318Z,83.50
2022-12-18T04:56:37.144Z,82.90
2022-12-18T04:59:05.829Z,79.80
2022-12-18T05:01:35.368Z,68.40
2022-12-18T05:04:04.073Z,74.70
2022-12-18T05:06:32.171Z,72.60
2022-12-18T05:08:59.942Z,77.20
2022-12-18T05:11:27.786Z,76.60
2022-12-18T05:13:58.583Z,82.20
2022-12-18T05:16:26.522Z,86.80
2022-12-18T05:18:54.550Z,80.90
2022-12-18T05:21:22.399Z,78.00
2022-12-18T05:23:50.236Z,73.60
2022-12-18T05:26:19.530Z,73.90
2022-12-18T05:28:47.751Z,77.50
2022-12-18T05:31:16.130Z,76.70
2022-12-18T05:33:44.630Z,70.90
2022-12-18T05:36:12.772Z,74.20
2022-12-18T05:38:41.543Z,69.20
2022-12-18T05:41:10.490Z,79.00
2022-12-18T05:43:40.698Z,74.40
2022-12-18T05:46:12.771Z,87.30
2022-12-18T05:48:41.698Z,79.90
2022-12-18T05:51:12.920Z,86.20
2022-12-18T05:53:41.637Z,90.90
2022-12-18T05:56:15.858Z,84.80
2022-12-18T05:58:44.875Z,88.70
2022-12-18T06:01:16.642Z,92.10
2022-12-18T06:03:45.870Z,82.80
2022-12-18T06:06:17.370Z,88.90
2022-12-18T06:08:46.743Z,86.80
2022-12-18T06:11:19.157Z,94.30
2022-12-18T06:13:53.581Z,88.40
2022-12-18T06:16:25.904Z,87.00
2022-12-18T06:18:54.105Z,89.90
2022-12-18T06:21:21.910Z,100.20
2022-12-18T06:23:49.736Z,112.60
2022-12-18T06:26:17.712Z,108.40
2022-12-18T06:28:45.595Z,111.60
2022-12-18T06:31:13.842Z,112.10
2022-12-18T06:33:42.764Z,102.60
2022-12-18T06:36:13.711Z,106.30
2022-12-18T06:38:43.699Z,107.00
2022-12-18T06:41:19.879Z,108.70
2022-12-18T06:43:47.881Z,103.50
2022-12-18T06:46:15.973Z,93.30
2022-12-18T06:48:43.892Z,106.20
2022-12-18T06:51:14.044Z,103.50
2022-12-18T06:53:45.258Z,127.70
2022-12-18T06:56:13.210Z,107.60
2022-12-18T06:58:42.875Z,117.10
2022-12-18T07:01:13.077Z,123.90
2022-12-18T07:03:43.364Z,108.60
2022-12-18T07:06:17.064Z,112.50
2022-12-18T07:08:46.362Z,104.10
2022-12-18T07:11:15.454Z,121.20
2022-12-18T07:13:45.912Z,117.90
2022-12-18T07:16:22.588Z,120.60
2022-12-18T07:18:57.691Z,116.00
2022-12-18T07:21:26.522Z,107.50
2022-12-18T07:23:55.106Z,111.80
2022-12-18T07:26:23.662Z,102.00
2022-12-18T07:28:51.686Z,107.20
2022-12-18T07:31:23.512Z,97.50
2022-12-18T07:33:54.337Z,86.30
2022-12-18T07:36:26.019Z,90.60
2022-12-18T07:38:54.088Z,82.20
2022-12-18T07:41:24.672Z,86.80
2022-12-18T07:43:52.696Z,86.00
2022-12-18T07:46:20.796Z,75.70
2022-12-18T07:48:49.983Z,73.50
2022-12-18T07:51:19.757Z,84.30
2022-12-18T07:53:51.788Z,80.50
2022-12-18T07:56:30.565Z,88.00
2022-12-18T07:59:00.329Z,88.70
2022-12-18T08:01:30.848Z,70.50
2022-12-18T08:03:59.636Z,70.00
2022-12-18T08:06:27.619Z,68.20
2022-12-18T08:08:56.990Z,68.70
2022-12-18T08:11:27.805Z,76.50
2022-12-18T08:13:56.795Z,63.90
2022-12-18T08:16:25.617Z,68.20
2022-12-18T08:18:54.488Z,75.60
2022-12-18T08:21:29.674Z,78.00
2022-12-18T08:23:59.960Z,70.60
2022-12-18T08:26:30.631Z,80.90
2022-12-18T08:28:59.740Z,65.80
2022-12-18T08:31:29.393Z,67.70
2022-12-18T08:33:58.333Z,71.10
2022-12-18T08:36:26.472Z,62.80
2022-12-18T08:38:56.183Z,63.50
2022-12-18T08:41:24.513Z,68.50
2022-12-18T08:44:10.917Z,75.40
2022-12-18T08:46:41.622Z,69.20
2022-12-18T08:49:10.936Z,66.10
2022-12-18T08:51:40.082Z,70.60
2022-12-18T08:54:17.080Z,62.30
2022-12-18T08:56:44.960Z,60.80
2022-12-18T08:59:19.575Z,61.90
2022-12-18T09:01:48.525Z,59.40
2022-12-18T09:04:17.184Z,59.50
2022-12-18T09:06:45.172Z,60.10
2022-12-18T09:09:13.648Z,60.80
2022-12-18T09:11:41.825Z,60.30
2022-12-18T09:14:10.697Z,61.10
2022-12-18T09:16:38.834Z,53.50
2022-12-18T09:19:06.902Z,48.60
2022-12-18T09:21:42.264Z,56.90
2022-12-18T09:24:15.812Z,57.10
2022-12-18T09:26:47.349Z,61.50
2022-12-18T09:29:18.814Z,58.40
2022-12-18T09:31:47.723Z,55.40
2022-12-18T09:34:15.978Z,48.40
2022-12-18T09:36:44.038Z,56.50
2022-12-18T09:39:11.982Z,57.50
2022-12-18T09:41:56.900Z,54.10
2022-12-18T09:44:24.810Z,57.50
2022-12-18T09:47:11.612Z,55.40
2022-12-18T09:49:44.918Z,49.50
2022-12-18T09:52:18.325Z,48.10
2022-12-18T09:54:53.363Z,50.50
2022-12-18T09:57:24.314Z,44.30
2022-12-18T10:00:12.612Z,39.10
2022-12-18T10:02:40.841Z,44.40
2022-12-18T10:05:16.880Z,38.70
2022-12-18T10:08:14.573Z,42.70
2022-12-18T10:11:04.566Z,35.70
2022-12-18T10:13:43.254Z,44.60
2022-12-18T10:16:16.379Z,48.20
2022-12-18T10:19:16.872Z,43.90
2022-12-18T10:22:03.709Z,40.00
2022-12-18T10:24:54.988Z,39.80
2022-12-18T10:27:27.348Z,30.50
2022-12-18T10:29:55.668Z,35.30
2022-12-18T10:32:29.053Z,35.50
2022-12-18T10:35:00.661Z,33.00
2022-12-18T10:37:30.996Z,31.90
2022-12-18T10:40:22.031Z,32.90
2022-12-18T10:43:15.673Z,29.70
2022-12-18T10:46:15.820Z,33.00
2022-12-18T10:48:50.544Z,34.30
2022-12-18T10:51:31.476Z,35.30
2022-12-18T10:54:23.184Z,36.70
2022-12-18T10:56:51.170Z,27.90
2022-12-18T10:59:19.869Z,26.30
2022-12-18T11:01:55.696Z,27.10
2022-12-18T11:04:29.956Z,33.30
2022-12-18T11:07:00.848Z,29.10
2022-12-18T11:09:32.825Z,28.20
2022-12-18T11:12:04.645Z,31.10
2022-12-18T11:14:39.955Z,31.20
2022-12-18T11:17:29.526Z,27.80
2022-12-18T11:20:20.424Z,26.00
2022-12-18T11:23:14.713Z,30.30
2022-12-18T11:25:52.999Z,32.90
2022-12-18T11:28:35.411Z,32.00
2022-12-18T11:31:17.985Z,40.70
2022-12-18T11:34:26.974Z,29.00
2022-12-18T11:36:47.765Z,29.30
2022-12-18T11:39:27.106Z,27.40
2022-12-18T11:42:12.468Z,29.10
2022-12-18T11:44:55.805Z,27.30
2022-12-18T11:47:59.220Z,27.30
2022-12-18T11:50:35.829Z,23.00
2022-12-18T11:53:06.214Z,21.60
2022-12-18T11:56:18.571Z,26.30
2022-12-18T11:58:49.004Z,25.70
2022-12-18T12:01:44.294Z,24.40
2022-12-18T12:04:28.656Z,23.80
2022-12-18T12:07:16.141Z,24.90
2022-12-18T12:09:59.173Z,23.70
2022-12-18T12:12:48.741Z,22.90
2022-12-18T12:15:43.287Z,23.20
2022-12-18T12:18:20.142Z,22.20
2022-12-18T12:21:33.082Z,24.70
2022-12-18T12:24:00.964Z,22.80
2022-12-18T12:27:00.458Z,26.70
2022-12-18T12:29:52.282Z,25.30
2022-12-18T12:32:32.305Z,27.50
2022-12-18T12:35:19.245Z,33.20
2022-12-18T12:38:12.241Z,28.70
2022-12-18T12:40:56.677Z,33.70
2022-12-18T12:43:51.457Z,30.30
2022-12-18T12:46:22.664Z,26.90
2022-12-18T12:48:54.950Z,25.80
2022-12-18T12:51:33.263Z,28.00
2022-12-18T12:54:05.089Z,25.30
2022-12-18T12:56:45.269Z,25.80
2022-12-18T12:59:41.299Z,28.80
2022-12-18T13:02:25.583Z,24.90
2022-12-18T13:05:04.833Z,27.30
2022-12-18T13:08:07.236Z,28.00
2022-12-18T13:10:41.625Z,28.80
2022-12-18T13:13:23.667Z,30.10
2022-12-18T13:16:08.133Z,27.00
2022-12-18T13:18:36.751Z,24.40
2022-12-18T13:21:21.747Z,22.40
2022-12-18T13:23:52.639Z,28.00
2022-12-18T13:26:26.442Z,24.80
2022-12-18T13:28:58.753Z,27.60
2022-12-18T13:31:42.219Z,24.60
2022-12-18T13:34:27.442Z,26.00
2022-12-18T13:37:32.933Z,28.40
2022-12-18T13:40:00.988Z,27.50
2022-12-18T13:42:58.364Z,29.60
2022-12-18T13:45:42.016Z,32.50
2022-12-18T13:50:50.699Z,34.20
2022-12-18T13:53:29.921Z,31.50
2022-12-18T13:55:58.592Z,32.90
2022-12-18T13:58:26.470Z,34.50
2022-12-18T14:00:54.384Z,32.30
2022-12-18T14:03:27.391Z,36.10
2022-12-18T14:05:59.960Z,34.40
2022-12-18T14:08:35.298Z,37.60
2022-12-18T14:11:06.107Z,33.60
2022-12-18T14:13:40.821Z,39.60
2022-12-18T14:16:13.242Z,40.60
2022-12-18T14:19:04.116Z,39.00
2022-12-18T14:21:49.211Z,36.50
2022-12-18T14:26:51.468Z,37.00
2022-12-18T14:29:19.331Z,38.00
2022-12-18T14:32:06.967Z,36.60
2022-12-18T14:34:36.255Z,47.20
2022-12-18T14:37:04.559Z,37.60
2022-12-18T14:39:32.382Z,39.90
2022-12-18T14:42:00.320Z,44.20
2022-12-18T14:44:34.534Z,38.70
2022-12-18T14:47:16.449Z,40.70
2022-12-18T14:49:44.862Z,42.20
2022-12-18T14:52:26.540Z,40.30
2022-12-18T14:54:54.663Z,43.40
2022-12-18T14:57:26.158Z,39.60
2022-12-18T14:59:54.072Z,38.40
2022-12-18T15:02:26.204Z,38.50
2022-12-18T15:05:36.049Z,37.70
2022-12-18T15:08:04.246Z,36.10
2022-12-18T15:10:34.611Z,41.60
2022-12-18T15:13:03.998Z,36.10
2022-12-18T15:15:37.958Z,42.40
2022-12-18T15:20:54.113Z,50.50
2022-12-18T15:23:37.328Z,45.90
2022-12-18T15:26:13.759Z,46.50
2022-12-18T15:28:56.581Z,40.00
2022-12-18T15:31:30.704Z,43.80
2022-12-18T15:34:00.254Z,44.80
2022-12-18T15:36:31.275Z,44.00
2022-12-18T15:39:05.071Z,43.80
2022-12-18T15:41:37.352Z,44.60
2022-12-18T15:44:23.466Z,43.50
2022-12-18T15:46:51.415Z,44.50
2022-12-18T15:49:19.401Z,45.50
2022-12-18T15:51:53.880Z,42.60
2022-12-18T15:54:40.797Z,42.20
2022-12-18T15:57:26.447Z,43.90
2022-12-18T16:00:00.106Z,46.20
2022-12-18T16:02:29.728Z,43.30
2022-12-18T16:04:58.099Z,48.00
2022-12-18T16:07:28.193Z,50.60
2022-12-18T16:10:01.259Z,48.80
2022-12-18T16:12:30.579Z,44.90
2022-12-18T16:14:58.412Z,46.60
2022-12-18T16:17:26.396Z,48.20
2022-12-18T16:19:54.293Z,44.90
2022-12-18T16:22:23.933Z,44.10
2022-12-18T16:24:52.958Z,47.70
2022-12-18T16:27:22.415Z,47.70
2022-12-18T16:29:50.298Z,47.10
2022-12-18T16:32:20.832Z,52.90
2022-12-18T16:34:48.819Z,50.40
2022-12-18T16:37:17.652Z,43.20
2022-12-18T16:39:45.633Z,46.90
2022-12-18T16:42:20.550Z,52.20
2022-12-18T16:44:50.498Z,49.00
2022-12-18T16:47:19.529Z,48.00
2022-12-18T16:49:49.121Z,47.30
2022-12-18T16:52:18.412Z,43.60
2022-12-18T16:54:46.420Z,48.10
2022-12-18T16:57:18.167Z,49.50
2022-12-18T16:59:46.823Z,43.00
2022-12-18T17:02:23.549Z,44.70
2022-12-18T17:04:55.358Z,49.00
2022-12-18T17:07:24.784Z,44.50
2022-12-18T17:09:54.332Z,48.00
2022-12-18T17:12:22.929Z,51.30
2022-12-18T17:14:50.937Z,45.80
2022-12-18T17:17:21.459Z,45.50
2022-12-18T17:19:51.977Z,49.00
2022-12-18T17:22:23.321Z,47.00
2022-12-18T17:24:51.413Z,49.70
2022-12-18T17:27:19.418Z,48.50
2022-12-18T17:29:48.783Z,51.30
2022-12-18T17:32:17.884Z,51.90
2022-12-18T17:34:46.103Z,49.60
2022-12-18T17:37:14.183Z,54.30
2022-12-18T17:39:42.433Z,77.30
2022-12-18T17:42:10.721Z,64.50
2022-12-18T17:44:45.027Z,58.00
2022-12-18T17:47:14.055Z,57.80
2022-12-18T17:49:42.056Z,56.50
2022-12-18T17:52:10.382Z,55.00
2022-12-18T17:54:40.001Z,55.20
2022-12-18T17:57:08.356Z,63.60
2022-12-18T17:59:36.423Z,64.60
2022-12-18T18:02:04.693Z,64.80
2022-12-18T18:04:32.736Z,60.80
2022-12-18T18:07:00.650Z,54.80
2022-12-18T18:09:28.596Z,60.90
2022-12-18T18:12:15.083Z,56.20
2022-12-18T18:14:43.084Z,64.40
2022-12-18T18:17:11.343Z,60.00
2022-12-18T18:19:39.220Z,65.90
2022-12-18T18:22:08.467Z,62.70
2022-12-18T18:24:36.691Z,61.70
2022-12-18T18:27:04.636Z,64.30
2022-12-18T18:29:32.733Z,53.90
2022-12-18T18:32:00.742Z,52.30
2022-12-18T18:34:32.020Z,49.60
2022-12-18T18:37:01.023Z,49.20
2022-12-18T18:39:29.869Z,53.40
2022-12-18T18:41:57.693Z,51.80
2022-12-18T18:44:26.441Z,58.70
2022-12-18T18:46:56.414Z,55.00
2022-12-18T18:49:27.825Z,56.00
2022-12-18T18:51:57.538Z,51.80
2022-12-18T18:54:27.127Z,51.50
2022-12-18T18:59:42.866Z,72.30
2022-12-18T19:02:15.422Z,92.80
2022-12-18T19:04:46.687Z,72.20
2022-12-18T19:07:29.994Z,58.40
2022-12-18T19:10:04.657Z,59.40
2022-12-18T19:12:53.021Z,54.30
2022-12-18T19:15:21.781Z,50.30
2022-12-18T19:17:49.984Z,63.60
2022-12-18T19:20:18.847Z,54.10
2022-12-18T19:22:55.787Z,56.80
2022-12-18T19:25:29.953Z,49.70
2022-12-18T19:28:15.990Z,52.90
2022-12-18T19:30:58.975Z,51.50
2022-12-18T19:33:43.201Z,52.50
2022-12-18T19:36:17.372Z,53.80
2022-12-18T19:38:46.208Z,56.00
2022-12-18T19:41:15.603Z,52.20
2022-12-18T19:43:44.726Z,54.90
2022-12-18T19:46:18.951Z,55.50
2022-12-18T19:48:47.800Z,60.90
2022-12-18T19:51:24.608Z,58.30
2022-12-18T19:53:58.502Z,54.10
2022-12-18T19:56:31.500Z,52.10
2022-12-18T19:59:00.235Z,51.50
2022-12-18T20:01:29.699Z,84.60
2022-12-18T20:03:59.062Z,77.90
2022-12-18T20:06:31.976Z,70.00
2022-12-18T20:09:03.671Z,143.90
2022-12-18T20:11:33.514Z,181.20
2022-12-18T20:14:05.332Z,219.10
2022-12-18T20:16:33.346Z,110.30
2022-12-18T20:19:01.839Z,83.60
2022-12-18T20:21:30.191Z,83.10
2022-12-18T20:24:00.051Z,94.20
2022-12-18T20:26:28.326Z,75.40
2022-12-18T20:28:56.642Z,75.70
2022-12-18T20:31:24.809Z,66.60
2022-12-18T20:33:53.432Z,66.30
2022-12-18T20:36:25.815Z,57.70
2022-12-18T20:38:59.115Z,61.30
2022-12-18T20:41:37.224Z,59.60
2022-12-18T20:44:22.662Z,58.40
2022-12-18T20:46:54.492Z,54.00
2022-12-18T20:49:24.581Z,55.40
2022-12-18T20:51:54.617Z,53.10
2022-12-18T20:54:25.129Z,58.10
2022-12-18T20:56:53.319Z,59.90
2022-12-18T20:59:23.271Z,60.10
2022-12-18T21:01:55.211Z,58.10
2022-12-18T21:04:23.646Z,59.70
2022-12-18T21:06:55.815Z,82.20
2022-12-18T21:09:37.140Z,76.60
2022-12-18T21:12:34.896Z,75.50
2022-12-18T21:15:10.154Z,53.60
2022-12-18T21:17:44.560Z,62.80
2022-12-18T21:20:17.947Z,54.50
2022-12-18T21:22:47.307Z,62.10
2022-12-18T21:25:15.267Z,56.10
2022-12-18T21:27:43.104Z,51.30
2022-12-18T21:30:11.867Z,53.50
2022-12-18T21:32:40.215Z,53.50
2022-12-18T21:35:08.444Z,53.50
2022-12-18T21:37:36.699Z,50.80
2022-12-18T21:40:06.290Z,51.70
2022-12-18T21:42:52.681Z,49.60
2022-12-18T21:45:20.870Z,51.40
2022-12-18T21:47:50.222Z,51.50
2022-12-18T21:50:18.340Z,59.80
2022-12-18T21:52:46.384Z,53.40
2022-12-18T21:55:14.237Z,50.70
2022-12-18T21:57:42.241Z,54.20
2022-12-18T22:00:19.334Z,51.20
2022-12-18T22:03:01.108Z,51.80
2022-12-18T22:05:37.323Z,52.00
2022-12-18T22:08:06.819Z,50.80
2022-12-18T22:10:35.595Z,50.80
2022-12-18T22:13:05.090Z,45.80
2022-12-18T22:15:33.741Z,54.90
2022-12-18T22:18:02.160Z,49.20
2022-12-18T22:20:30.259Z,48.80
2022-12-18T22:22:59.050Z,57.20
2022-12-18T22:25:30.612Z,65.00
2022-12-18T22:28:17.034Z,53.50
2022-12-18T22:30:44.938Z,52.30
2022-12-18T22:33:12.925Z,46.80
2022-12-18T22:35:40.842Z,54.20
2022-12-18T22:38:09.596Z,53.10
2022-12-18T22:40:37.489Z,49.00
2022-12-18T22:43:05.319Z,49.10
2022-12-18T22:45:34.142Z,54.50
2022-12-18T22:48:06.478Z,59.00
2022-12-18T22:50:34.303Z,54.70
2022-12-18T22:53:02.137Z,53.80
2022-12-18T22:55:29.964Z,60.70
2022-12-18T22:57:57.845Z,56.90
2022-12-18T23:00:26.573Z,57.00
2022-12-18T23:02:59.801Z,55.10
2022-12-18T23:05:31.019Z,59.00
2022-12-18T23:07:59.248Z,55.10
2022-12-18T23:10:27.518Z,54.30
2022-12-18T23:12:55.571Z,54.80
2022-12-18T23:15:28.286Z,51.70
2022-12-18T23:17:58.764Z,52.20
2022-12-18T23:20:27.849Z,55.10
2022-12-18T23:22:56.102Z,55.50
2022-12-18T23:25:24.050Z,48.90
2022-12-18T23:27:52.139Z,54.30
2022-12-18T23:30:20.067Z,49.10
2022-12-18T23:32:48.456Z,52.00
2022-12-18T23:35:17.630Z,50.40
2022-12-18T23:38:03.678Z,53.30
2022-12-18T23:40:31.863Z,53.50
2022-12-18T23:43:00.513Z,58.20
2022-12-18T23:45:28.791Z,58.70
2022-12-18T23:47:56.794Z,59.50
2022-12-18T23:50:29.141Z,51.60
2022-12-18T23:53:05.343Z,49.30
2022-12-18T23:55:39.761Z,53.60
2022-12-18T23:58:15.187Z,51.00
